sensor_id;sensor_type;location;lat;lon;timestamp;pressure;altitude;pressure_sealevel;temperature;humidity
37486;BME280;23341;50.296;18.960;2023-05-02T00:00:29;49438.56;;;-144.43;58.31
37486;BME280;23341;50.296;18.960;2023-05-02T00:05:50;49440.56;;;-144.43;59.79
37486;BME280;23341;50.296;18.960;2023-05-02T00:10:56;49438.56;;;-144.43;60.19
37486;BME280;23341;50.296;18.960;2023-05-02T00:16:00;49462.56;;;-144.43;60.51
37486;BME280;23341;50.296;18.960;2023-05-02T00:21:05;49440.56;;;-144.43;60.72
37486;BME280;23341;50.296;18.960;2023-05-02T00:26:10;49490.53;;;-144.43;60.83
37486;BME280;23341;50.296;18.960;2023-05-02T00:31:17;49494.53;;;-144.43;61.33
37486;BME280;23341;50.296;18.960;2023-05-02T00:36:22;49478.53;;;-144.43;61.81
37486;BME280;23341;50.296;18.960;2023-05-02T00:41:27;49542.50;;;-144.43;64.07
37486;BME280;23341;50.296;18.960;2023-05-02T00:46:31;49490.53;;;-144.43;64.70
37486;BME280;23341;50.296;18.960;2023-05-02T00:51:36;49474.56;;;-144.43;63.62
37486;BME280;23341;50.296;18.960;2023-05-02T00:56:42;49506.53;;;-144.43;65.76
37486;BME280;23341;50.296;18.960;2023-05-02T01:01:55;49510.53;;;-144.43;67.31
37486;BME280;23341;50.296;18.960;2023-05-02T01:07:18;49526.50;;;-144.43;68.54
37486;BME280;23341;50.296;18.960;2023-05-02T01:12:32;49508.53;;;-144.43;68.17
37486;BME280;23341;50.296;18.960;2023-05-02T01:17:40;49500.53;;;-144.43;67.69
37486;BME280;23341;50.296;18.960;2023-05-02T01:22:47;49482.53;;;-144.43;67.88
37486;BME280;23341;50.296;18.960;2023-05-02T01:28:03;49486.53;;;-144.43;67.81
37486;BME280;23341;50.296;18.960;2023-05-02T01:33:15;49504.53;;;-144.43;67.79
37486;BME280;23341;50.296;18.960;2023-05-02T01:38:21;49536.50;;;-144.43;68.32
37486;BME280;23341;50.296;18.960;2023-05-02T01:43:27;49552.50;;;-144.43;68.89
37486;BME280;23341;50.296;18.960;2023-05-02T01:48:34;49540.50;;;-144.43;68.80
37486;BME280;23341;50.296;18.960;2023-05-02T01:53:39;49548.50;;;-144.43;68.89
37486;BME280;23341;50.296;18.960;2023-05-02T01:58:46;49562.50;;;-144.43;68.82
37486;BME280;23341;50.296;18.960;2023-05-02T02:03:53;49588.47;;;-144.43;67.64
37486;BME280;23341;50.296;18.960;2023-05-02T02:08:58;49564.50;;;-144.43;67.76
37486;BME280;23341;50.296;18.960;2023-05-02T02:14:05;49598.47;;;-144.43;67.34
37486;BME280;23341;50.296;18.960;2023-05-02T02:19:13;49556.50;;;-144.43;67.04
37486;BME280;23341;50.296;18.960;2023-05-02T02:24:20;49568.50;;;-144.43;66.35
37486;BME280;23341;50.296;18.960;2023-05-02T02:29:25;49552.50;;;-144.43;66.18
37486;BME280;23341;50.296;18.960;2023-05-02T02:34:31;49578.47;;;-144.43;65.11
37486;BME280;23341;50.296;18.960;2023-05-02T02:39:45;49554.50;;;-144.43;64.33
37486;BME280;23341;50.296;18.960;2023-05-02T02:44:57;49570.50;;;-144.43;64.01
37486;BME280;23341;50.296;18.960;2023-05-02T02:50:14;49574.47;;;-144.43;63.83
37486;BME280;23341;50.296;18.960;2023-05-02T02:55:28;49554.50;;;-144.43;63.68
37486;BME280;23341;50.296;18.960;2023-05-02T03:00:34;49546.50;;;-144.43;63.28
37486;BME280;23341;50.296;18.960;2023-05-02T03:05:41;49568.50;;;-144.43;62.83
37486;BME280;23341;50.296;18.960;2023-05-02T03:10:47;49534.50;;;-144.43;62.55
37486;BME280;23341;50.296;18.960;2023-05-02T03:16:17;49562.50;;;-144.43;61.90
37486;BME280;23341;50.296;18.960;2023-05-02T03:21:31;49490.53;;;-144.43;62.08
37486;BME280;23341;50.296;18.960;2023-05-02T03:26:41;49558.50;;;-144.43;62.50
37486;BME280;23341;50.296;18.960;2023-05-02T03:31:48;49516.53;;;-144.43;62.18
37486;BME280;23341;50.296;18.960;2023-05-02T03:36:55;49508.53;;;-144.43;61.47
37486;BME280;23341;50.296;18.960;2023-05-02T03:42:00;49506.53;;;-144.43;61.59
37486;BME280;23341;50.296;18.960;2023-05-02T03:47:05;49524.53;;;-144.43;59.52
37486;BME280;23341;50.296;18.960;2023-05-02T03:52:16;49508.53;;;-144.43;60.27
37486;BME280;23341;50.296;18.960;2023-05-02T03:57:21;49514.53;;;-144.43;60.04
37486;BME280;23341;50.296;18.960;2023-05-02T04:02:26;49548.50;;;-144.43;59.56
37486;BME280;23341;50.296;18.960;2023-05-02T04:07:33;49534.50;;;-144.43;59.62
37486;BME280;23341;50.296;18.960;2023-05-02T04:12:40;49538.50;;;-144.43;58.91
37486;BME280;23341;50.296;18.960;2023-05-02T04:17:46;49518.53;;;-144.43;59.24
37486;BME280;23341;50.296;18.960;2023-05-02T04:22:53;49526.50;;;-144.43;58.78
37486;BME280;23341;50.296;18.960;2023-05-02T04:27:57;49522.53;;;-144.43;58.04
37486;BME280;23341;50.296;18.960;2023-05-02T04:33:02;49506.53;;;-144.43;58.07
37486;BME280;23341;50.296;18.960;2023-05-02T04:38:13;49526.50;;;-144.43;57.77
37486;BME280;23341;50.296;18.960;2023-05-02T04:43:18;49582.47;;;-144.43;56.69
37486;BME280;23341;50.296;18.960;2023-05-02T04:48:31;49550.50;;;-144.43;55.68
37486;BME280;23341;50.296;18.960;2023-05-02T04:53:38;49586.47;;;-144.43;55.83
37486;BME280;23341;50.296;18.960;2023-05-02T04:58:42;49594.47;;;-144.43;54.37
37486;BME280;23341;50.296;18.960;2023-05-02T05:03:47;49612.47;;;-144.43;52.75
37486;BME280;23341;50.296;18.960;2023-05-02T05:08:54;49662.44;;;-144.43;51.16
37486;BME280;23341;50.296;18.960;2023-05-02T05:13:58;49702.41;;;-144.43;49.71
37486;BME280;23341;50.296;18.960;2023-05-02T05:19:03;49664.44;;;-144.43;49.69
37486;BME280;23341;50.296;18.960;2023-05-02T05:24:10;49728.41;;;-144.43;48.80
37486;BME280;23341;50.296;18.960;2023-05-02T05:29:14;49730.38;;;-144.43;49.23
37486;BME280;23341;50.296;18.960;2023-05-02T05:34:20;49752.38;;;-144.43;49.00
37486;BME280;23341;50.296;18.960;2023-05-02T05:39:27;49776.38;;;-144.43;49.04
37486;BME280;23341;50.296;18.960;2023-05-02T05:44:34;49802.34;;;-144.43;48.20
37486;BME280;23341;50.296;18.960;2023-05-02T05:49:40;49846.31;;;-144.43;47.27
37486;BME280;23341;50.296;18.960;2023-05-02T05:54:46;49996.25;;;-144.43;44.94
37486;BME280;23341;50.296;18.960;2023-05-02T05:59:51;50098.19;;;-144.43;43.59
37486;BME280;23341;50.296;18.960;2023-05-02T06:04:55;50132.19;;;-144.43;42.98
37486;BME280;23341;50.296;18.960;2023-05-02T06:10:02;50370.06;;;-144.43;40.20
37486;BME280;23341;50.296;18.960;2023-05-02T06:15:09;50458.03;;;-144.43;39.48
37486;BME280;23341;50.296;18.960;2023-05-02T06:20:15;50486.00;;;-144.43;39.06
37486;BME280;23341;50.296;18.960;2023-05-02T06:25:21;50538.00;;;-144.43;38.28
37486;BME280;23341;50.296;18.960;2023-05-02T06:30:26;50562.00;;;-144.43;38.12
37486;BME280;23341;50.296;18.960;2023-05-02T06:35:30;50348.06;;;-144.43;40.16
37486;BME280;23341;50.296;18.960;2023-05-02T06:40:35;50406.06;;;-144.43;39.61
37486;BME280;23341;50.296;18.960;2023-05-02T06:45:46;50546.00;;;-144.43;38.39
37486;BME280;23341;50.296;18.960;2023-05-02T06:50:51;50450.03;;;-144.43;39.42
37486;BME280;23341;50.296;18.960;2023-05-02T06:55:57;50562.00;;;-144.43;39.09
37486;BME280;23341;50.296;18.960;2023-05-02T07:01:02;50731.94;;;-144.43;37.30
37486;BME280;23341;50.296;18.960;2023-05-02T07:06:06;50895.88;;;-144.43;36.01
37486;BME280;23341;50.296;18.960;2023-05-02T07:11:12;50569.97;;;-144.43;37.66
37486;BME280;23341;50.296;18.960;2023-05-02T07:16:16;50679.94;;;-144.43;37.45
37486;BME280;23341;50.296;18.960;2023-05-02T07:21:20;50791.91;;;-144.43;36.82
37486;BME280;23341;50.296;18.960;2023-05-02T07:26:27;50997.84;;;-144.43;35.50
37486;BME280;23341;50.296;18.960;2023-05-02T07:31:31;50923.88;;;-144.43;35.29
37486;BME280;23341;50.296;18.960;2023-05-02T07:36:36;50677.94;;;-144.43;36.51
37486;BME280;23341;50.296;18.960;2023-05-02T07:41:42;50591.97;;;-144.43;37.55
37486;BME280;23341;50.296;18.960;2023-05-02T07:46:46;50597.97;;;-144.43;37.20
37486;BME280;23341;50.296;18.960;2023-05-02T07:51:51;50791.91;;;-144.43;35.70
37486;BME280;23341;50.296;18.960;2023-05-02T07:56:57;50963.84;;;-144.43;34.30
37486;BME280;23341;50.296;18.960;2023-05-02T08:02:04;51351.75;;;-144.43;32.71
37486;BME280;23341;50.296;18.960;2023-05-02T08:07:09;51823.72;;;-144.43;30.49
37486;BME280;23341;50.296;18.960;2023-05-02T08:12:14;51889.72;;;-144.43;30.08
37486;BME280;23341;50.296;18.960;2023-05-02T08:17:19;52189.72;;;-144.43;29.43
37486;BME280;23341;50.296;18.960;2023-05-02T08:22:23;51307.78;;;-144.43;32.06
37486;BME280;23341;50.296;18.960;2023-05-02T08:27:29;51397.75;;;-144.43;31.84
37486;BME280;23341;50.296;18.960;2023-05-02T08:32:35;51593.72;;;-144.43;31.66
37486;BME280;23341;50.296;18.960;2023-05-02T08:37:39;51679.72;;;-144.43;30.91
37486;BME280;23341;50.296;18.960;2023-05-02T08:42:45;51469.75;;;-144.43;32.09
37486;BME280;23341;50.296;18.960;2023-05-02T08:47:50;51729.72;;;-144.43;31.74
37486;BME280;23341;50.296;18.960;2023-05-02T08:52:56;51635.72;;;-144.43;31.94
37486;BME280;23341;50.296;18.960;2023-05-02T08:58:02;51445.75;;;-144.43;33.46
37486;BME280;23341;50.296;18.960;2023-05-02T09:03:13;51661.72;;;-144.43;32.55
37486;BME280;23341;50.296;18.960;2023-05-02T09:08:25;51477.75;;;-144.43;33.39
37486;BME280;23341;50.296;18.960;2023-05-02T09:13:35;51201.78;;;-144.43;34.93
37486;BME280;23341;50.296;18.960;2023-05-02T09:18:41;50891.88;;;-144.43;37.09
37486;BME280;23341;50.296;18.960;2023-05-02T09:23:47;51029.84;;;-144.43;36.68
37486;BME280;23341;50.296;18.960;2023-05-02T09:28:54;51069.81;;;-144.43;36.46
37486;BME280;23341;50.296;18.960;2023-05-02T09:34:07;50875.88;;;-144.43;38.18
37486;BME280;23341;50.296;18.960;2023-05-02T09:39:13;50707.94;;;-144.43;39.79
37486;BME280;23341;50.296;18.960;2023-05-02T09:44:21;50643.97;;;-144.43;41.32
37486;BME280;23341;50.296;18.960;2023-05-02T09:49:44;50558.00;;;-144.43;43.93
37486;BME280;23341;50.296;18.960;2023-05-02T09:54:49;50757.91;;;-144.43;43.91
37486;BME280;23341;50.296;18.960;2023-05-02T09:59:56;50747.91;;;-144.43;45.00
37486;BME280;23341;50.296;18.960;2023-05-02T10:05:01;50801.91;;;-144.43;44.41
37486;BME280;23341;50.296;18.960;2023-05-02T10:10:11;50877.88;;;-144.43;44.44
37486;BME280;23341;50.296;18.960;2023-05-02T10:15:21;50761.91;;;-144.43;45.80
37486;BME280;23341;50.296;18.960;2023-05-02T10:20:29;50869.88;;;-144.43;44.51
37486;BME280;23341;50.296;18.960;2023-05-02T10:25:35;50909.88;;;-144.43;44.67
37486;BME280;23341;50.296;18.960;2023-05-02T10:30:41;50877.88;;;-144.43;45.34
37486;BME280;23341;50.296;18.960;2023-05-02T10:35:46;50797.91;;;-144.43;45.25
37486;BME280;23341;50.296;18.960;2023-05-02T10:40:53;50865.88;;;-144.43;45.08
37486;BME280;23341;50.296;18.960;2023-05-02T10:46:00;50877.88;;;-144.43;44.78
37486;BME280;23341;50.296;18.960;2023-05-02T10:51:05;50985.84;;;-144.43;43.36
37486;BME280;23341;50.296;18.960;2023-05-02T10:56:17;50839.88;;;-144.43;44.88
37486;BME280;23341;50.296;18.960;2023-05-02T11:01:34;50973.84;;;-144.43;44.68
37486;BME280;23341;50.296;18.960;2023-05-02T11:07:17;50883.88;;;-144.43;44.84
37486;BME280;23341;50.296;18.960;2023-05-02T11:12:43;51001.84;;;-144.43;43.92
37486;BME280;23341;50.296;18.960;2023-05-02T11:18:03;50923.88;;;-144.43;44.61
37486;BME280;23341;50.296;18.960;2023-05-02T11:23:20;50925.88;;;-144.43;44.58
37486;BME280;23341;50.296;18.960;2023-05-02T11:28:41;50869.88;;;-144.43;44.86
37486;BME280;23341;50.296;18.960;2023-05-02T11:33:54;50717.94;;;-144.43;46.60
37486;BME280;23341;50.296;18.960;2023-05-02T11:38:59;50747.91;;;-144.43;47.84
37486;BME280;23341;50.296;18.960;2023-05-02T11:44:04;50767.91;;;-144.43;47.73
37486;BME280;23341;50.296;18.960;2023-05-02T11:49:10;50891.88;;;-144.43;45.57
37486;BME280;23341;50.296;18.960;2023-05-02T11:54:20;51019.84;;;-144.43;44.96
37486;BME280;23341;50.296;18.960;2023-05-02T11:59:24;50989.84;;;-144.43;44.52
37486;BME280;23341;50.296;18.960;2023-05-02T12:04:30;51043.84;;;-144.43;44.04
37486;BME280;23341;50.296;18.960;2023-05-02T12:09:34;50973.84;;;-144.43;43.57
37486;BME280;23341;50.296;18.960;2023-05-02T12:14:39;51241.78;;;-144.43;41.62
37486;BME280;23341;50.296;18.960;2023-05-02T12:19:44;51177.81;;;-144.43;40.26
37486;BME280;23341;50.296;18.960;2023-05-02T12:24:50;51155.81;;;-144.43;40.78
37486;BME280;23341;50.296;18.960;2023-05-02T12:29:55;51123.81;;;-144.43;41.57
37486;BME280;23341;50.296;18.960;2023-05-02T12:35:02;51037.84;;;-144.43;43.55
37486;BME280;23341;50.296;18.960;2023-05-02T12:40:14;50923.88;;;-144.43;44.24
37486;BME280;23341;50.296;18.960;2023-05-02T12:45:19;50913.88;;;-144.43;45.15
37486;BME280;23341;50.296;18.960;2023-05-02T12:50:35;50715.94;;;-144.43;46.83
37486;BME280;23341;50.296;18.960;2023-05-02T12:55:40;50849.88;;;-144.43;46.24
37486;BME280;23341;50.296;18.960;2023-05-02T13:00:44;50925.88;;;-144.43;45.82
37486;BME280;23341;50.296;18.960;2023-05-02T13:05:54;50837.91;;;-144.43;46.16
37486;BME280;23341;50.296;18.960;2023-05-02T13:10:58;50747.91;;;-144.43;47.47
37486;BME280;23341;50.296;18.960;2023-05-02T13:16:02;50849.88;;;-144.43;46.49
37486;BME280;23341;50.296;18.960;2023-05-02T13:21:08;50885.88;;;-144.43;46.07
37486;BME280;23341;50.296;18.960;2023-05-02T13:26:12;50883.88;;;-144.43;43.60
37486;BME280;23341;50.296;18.960;2023-05-02T13:31:17;50805.91;;;-144.43;43.58
37486;BME280;23341;50.296;18.960;2023-05-02T13:36:23;50817.91;;;-144.43;43.97
37486;BME280;23341;50.296;18.960;2023-05-02T13:41:28;50779.91;;;-144.43;43.76
37486;BME280;23341;50.296;18.960;2023-05-02T13:46:32;50755.91;;;-144.43;43.65
37486;BME280;23341;50.296;18.960;2023-05-02T13:51:41;50723.94;;;-144.43;43.54
37486;BME280;23341;50.296;18.960;2023-05-02T13:56:45;50609.97;;;-144.43;43.12
37486;BME280;23341;50.296;18.960;2023-05-02T14:01:51;50500.00;;;-144.43;43.30
37486;BME280;23341;50.296;18.960;2023-05-02T14:06:57;50522.00;;;-144.43;43.27
37486;BME280;23341;50.296;18.960;2023-05-02T14:12:01;50524.00;;;-144.43;42.57
37486;BME280;23341;50.296;18.960;2023-05-02T14:17:05;50611.97;;;-144.43;41.49
37486;BME280;23341;50.296;18.960;2023-05-02T14:22:11;50502.00;;;-144.43;41.92
37486;BME280;23341;50.296;18.960;2023-05-02T14:27:15;50522.00;;;-144.43;42.02
37486;BME280;23341;50.296;18.960;2023-05-02T14:32:20;50490.00;;;-144.43;41.30
37486;BME280;23341;50.296;18.960;2023-05-02T14:37:26;50382.06;;;-144.43;41.75
37486;BME280;23341;50.296;18.960;2023-05-02T14:42:30;50358.06;;;-144.43;41.84
37486;BME280;23341;50.296;18.960;2023-05-02T14:47:35;50306.09;;;-144.43;41.45
37486;BME280;23341;50.296;18.960;2023-05-02T14:52:40;50354.06;;;-144.43;41.47
37486;BME280;23341;50.296;18.960;2023-05-02T14:57:44;50378.06;;;-144.43;41.19
37486;BME280;23341;50.296;18.960;2023-05-02T15:02:49;50302.09;;;-144.43;41.15
37486;BME280;23341;50.296;18.960;2023-05-02T15:07:55;50256.13;;;-144.43;42.14
37486;BME280;23341;50.296;18.960;2023-05-02T15:12:59;50246.13;;;-144.43;46.34
37486;BME280;23341;50.296;18.960;2023-05-02T15:18:04;50188.16;;;-144.43;48.55
37486;BME280;23341;50.296;18.960;2023-05-02T15:23:10;50122.19;;;-144.43;49.34
37486;BME280;23341;50.296;18.960;2023-05-02T15:28:14;50076.19;;;-144.43;51.74
37486;BME280;23341;50.296;18.960;2023-05-02T15:33:19;50010.22;;;-144.43;55.29
37486;BME280;23341;50.296;18.960;2023-05-02T15:38:24;50100.19;;;-144.43;61.21
37486;BME280;23341;50.296;18.960;2023-05-02T15:43:29;50028.22;;;-144.43;58.85
37486;BME280;23341;50.296;18.960;2023-05-02T15:48:33;50064.22;;;-144.43;56.98
37486;BME280;23341;50.296;18.960;2023-05-02T15:53:40;50108.19;;;-144.43;58.31
37486;BME280;23341;50.296;18.960;2023-05-02T15:58:46;50058.22;;;-144.43;55.12
37486;BME280;23341;50.296;18.960;2023-05-02T16:03:50;49988.25;;;-144.43;54.20
37486;BME280;23341;50.296;18.960;2023-05-02T16:08:56;49982.25;;;-144.43;53.24
37486;BME280;23341;50.296;18.960;2023-05-02T16:14:00;49952.25;;;-144.43;57.26
37486;BME280;23341;50.296;18.960;2023-05-02T16:19:05;49942.28;;;-144.43;62.82
37486;BME280;23341;50.296;18.960;2023-05-02T16:24:15;49924.28;;;-144.43;65.03
37486;BME280;23341;50.296;18.960;2023-05-02T16:29:19;49940.28;;;-144.43;66.73
37486;BME280;23341;50.296;18.960;2023-05-02T16:34:24;49974.25;;;-144.43;65.97
37486;BME280;23341;50.296;18.960;2023-05-02T16:39:29;49930.28;;;-144.43;63.43
37486;BME280;23341;50.296;18.960;2023-05-02T16:44:34;49958.25;;;-144.43;63.95
37486;BME280;23341;50.296;18.960;2023-05-02T16:49:39;49956.25;;;-144.43;63.90
37486;BME280;23341;50.296;18.960;2023-05-02T16:54:44;49988.25;;;-144.43;64.17
37486;BME280;23341;50.296;18.960;2023-05-02T16:59:50;49984.25;;;-144.43;64.75
37486;BME280;23341;50.296;18.960;2023-05-02T17:04:54;49956.25;;;-144.43;63.33
37486;BME280;23341;50.296;18.960;2023-05-02T17:10:00;49944.28;;;-144.43;64.20
37486;BME280;23341;50.296;18.960;2023-05-02T17:15:07;49952.25;;;-144.43;68.46
37486;BME280;23341;50.296;18.960;2023-05-02T17:20:11;49910.28;;;-144.43;71.56
37486;BME280;23341;50.296;18.960;2023-05-02T17:25:17;49910.28;;;-144.43;71.99
37486;BME280;23341;50.296;18.960;2023-05-02T17:30:21;49958.25;;;-144.43;75.33
37486;BME280;23341;50.296;18.960;2023-05-02T17:35:26;49958.25;;;-144.43;75.78
37486;BME280;23341;50.296;18.960;2023-05-02T17:40:32;50074.19;;;-144.43;77.45
37486;BME280;23341;50.296;18.960;2023-05-02T17:45:39;50108.19;;;-144.43;80.69
37486;BME280;23341;50.296;18.960;2023-05-02T17:50:43;50234.13;;;-144.43;83.49
37486;BME280;23341;50.296;18.960;2023-05-02T17:55:49;50208.13;;;-144.43;81.18
37486;BME280;23341;50.296;18.960;2023-05-02T18:00:53;50162.16;;;-144.43;80.35
37486;BME280;23341;50.296;18.960;2023-05-02T18:05:57;50192.16;;;-144.43;82.37
37486;BME280;23341;50.296;18.960;2023-05-02T18:11:03;50270.09;;;-144.43;83.20
37486;BME280;23341;50.296;18.960;2023-05-02T18:16:07;50270.09;;;-144.43;84.41
37486;BME280;23341;50.296;18.960;2023-05-02T18:21:19;50344.06;;;-144.43;85.09
37486;BME280;23341;50.296;18.960;2023-05-02T18:26:25;50332.09;;;-144.43;84.02
37486;BME280;23341;50.296;18.960;2023-05-02T18:31:29;50346.06;;;-144.43;83.49
37486;BME280;23341;50.296;18.960;2023-05-02T18:36:33;50338.06;;;-144.43;81.69
37486;BME280;23341;50.296;18.960;2023-05-02T18:41:39;50318.09;;;-144.43;80.89
37486;BME280;23341;50.296;18.960;2023-05-02T18:46:43;50326.09;;;-144.43;80.31
37486;BME280;23341;50.296;18.960;2023-05-02T18:51:48;50326.09;;;-144.43;79.11
37486;BME280;23341;50.296;18.960;2023-05-02T18:56:54;50266.13;;;-144.43;77.32
37486;BME280;23341;50.296;18.960;2023-05-02T19:01:58;50268.09;;;-144.43;79.46
37486;BME280;23341;50.296;18.960;2023-05-02T19:07:03;50276.09;;;-144.43;84.20
37486;BME280;23341;50.296;18.960;2023-05-02T19:12:08;50454.03;;;-144.43;88.33
37486;BME280;23341;50.296;18.960;2023-05-02T19:17:13;50448.03;;;-144.43;87.91
37486;BME280;23341;50.296;18.960;2023-05-02T19:22:17;50540.00;;;-144.43;88.64
37486;BME280;23341;50.296;18.960;2023-05-02T19:27:25;50486.00;;;-144.43;86.21
37486;BME280;23341;50.296;18.960;2023-05-02T19:32:29;50528.00;;;-144.43;86.70
37486;BME280;23341;50.296;18.960;2023-05-02T19:37:33;50490.00;;;-144.43;87.01
37486;BME280;23341;50.296;18.960;2023-05-02T19:42:39;50514.00;;;-144.43;86.01
37486;BME280;23341;50.296;18.960;2023-05-02T19:47:43;50554.00;;;-144.43;88.70
37486;BME280;23341;50.296;18.960;2023-05-02T19:52:49;50611.97;;;-144.43;88.73
37486;BME280;23341;50.296;18.960;2023-05-02T19:57:54;50657.94;;;-144.43;89.42
37486;BME280;23341;50.296;18.960;2023-05-02T20:02:59;50665.94;;;-144.43;89.20
37486;BME280;23341;50.296;18.960;2023-05-02T20:08:03;50667.94;;;-144.43;88.79
37486;BME280;23341;50.296;18.960;2023-05-02T20:13:09;50653.94;;;-144.43;88.85
37486;BME280;23341;50.296;18.960;2023-05-02T20:18:14;50683.94;;;-144.43;88.20
37486;BME280;23341;50.296;18.960;2023-05-02T20:23:18;50669.94;;;-144.43;88.07
37486;BME280;23341;50.296;18.960;2023-05-02T20:28:24;50685.94;;;-144.43;88.79
37486;BME280;23341;50.296;18.960;2023-05-02T20:33:28;50721.94;;;-144.43;89.54
37486;BME280;23341;50.296;18.960;2023-05-02T20:38:47;50753.91;;;-144.43;90.37
37486;BME280;23341;50.296;18.960;2023-05-02T20:43:52;50781.91;;;-144.43;91.28
37486;BME280;23341;50.296;18.960;2023-05-02T20:48:59;50781.91;;;-144.43;91.30
37486;BME280;23341;50.296;18.960;2023-05-02T20:54:04;50817.91;;;-144.43;91.40
37486;BME280;23341;50.296;18.960;2023-05-02T20:59:09;50865.88;;;-144.43;92.08
37486;BME280;23341;50.296;18.960;2023-05-02T21:04:14;50821.91;;;-144.43;91.96
37486;BME280;23341;50.296;18.960;2023-05-02T21:09:18;50821.91;;;-144.43;91.76
37486;BME280;23341;50.296;18.960;2023-05-02T21:14:24;50851.88;;;-144.43;94.75
37486;BME280;23341;50.296;18.960;2023-05-02T21:19:29;50927.88;;;-144.43;95.16
37486;BME280;23341;50.296;18.960;2023-05-02T21:24:35;51025.84;;;-144.43;97.78
37486;BME280;23341;50.296;18.960;2023-05-02T21:29:41;51093.81;;;-144.43;99.14
37486;BME280;23341;50.296;18.960;2023-05-02T21:34:45;51163.81;;;-144.43;100.00
37486;BME280;23341;50.296;18.960;2023-05-02T21:39:50;51229.78;;;-144.43;100.00
37486;BME280;23341;50.296;18.960;2023-05-02T21:44:55;51273.78;;;-144.43;100.00
37486;BME280;23341;50.296;18.960;2023-05-02T21:50:00;51261.78;;;-144.43;100.00
37486;BME280;23341;50.296;18.960;2023-05-02T21:55:05;51381.75;;;-144.43;100.00
37486;BME280;23341;50.296;18.960;2023-05-02T22:00:12;51377.75;;;-144.43;100.00
37486;BME280;23341;50.296;18.960;2023-05-02T22:05:16;51409.75;;;-144.43;100.00
37486;BME280;23341;50.296;18.960;2023-05-02T22:10:21;51457.75;;;-144.43;100.00
37486;BME280;23341;50.296;18.960;2023-05-02T22:15:26;51473.75;;;-144.43;100.00
37486;BME280;23341;50.296;18.960;2023-05-02T22:20:31;51493.75;;;-144.43;100.00
37486;BME280;23341;50.296;18.960;2023-05-02T22:25:38;51485.75;;;-144.43;100.00
37486;BME280;23341;50.296;18.960;2023-05-02T22:30:44;51521.75;;;-144.43;100.00
37486;BME280;23341;50.296;18.960;2023-05-02T22:35:48;51615.72;;;-144.43;100.00
37486;BME280;23341;50.296;18.960;2023-05-02T22:40:52;51629.72;;;-144.43;100.00
37486;BME280;23341;50.296;18.960;2023-05-02T22:45:58;51621.72;;;-144.43;100.00
37486;BME280;23341;50.296;18.960;2023-05-02T22:51:03;51507.75;;;-144.43;100.00
37486;BME280;23341;50.296;18.960;2023-05-02T22:56:07;51545.75;;;-144.43;100.00
37486;BME280;23341;50.296;18.960;2023-05-02T23:01:13;51533.75;;;-144.43;100.00
37486;BME280;23341;50.296;18.960;2023-05-02T23:06:17;51555.72;;;-144.43;100.00
37486;BME280;23341;50.296;18.960;2023-05-02T23:11:21;51577.72;;;-144.43;100.00
37486;BME280;23341;50.296;18.960;2023-05-02T23:16:27;51595.72;;;-144.43;100.00
37486;BME280;23341;50.296;18.960;2023-05-02T23:21:31;51659.72;;;-144.43;100.00
37486;BME280;23341;50.296;18.960;2023-05-02T23:26:35;51695.72;;;-144.43;100.00
37486;BME280;23341;50.296;18.960;2023-05-02T23:31:41;51665.72;;;-144.43;100.00
37486;BME280;23341;50.296;18.960;2023-05-02T23:36:46;51769.72;;;-144.43;100.00
37486;BME280;23341;50.296;18.960;2023-05-02T23:41:50;51825.72;;;-144.43;100.00
37486;BME280;23341;50.296;18.960;2023-05-02T23:46:56;51877.72;;;-144.43;100.00
37486;BME280;23341;50.296;18.960;2023-05-02T23:52:01;51895.72;;;-144.43;100.00
37486;BME280;23341;50.296;18.960;2023-05-02T23:57:06;51861.72;;;-144.43;100.00
